Time;durP1;ratioP1;P1;durP2;ratioP2;P2;SDS_P1;SDS_P2;PMS_P1;PMS_P2;Temp;Humidity;BMP_temperature;BMP_pressure;BME280_temperature;BME280_humidity;BME280_pressure;Samples;Min_cycle;Max_cycle;Signal;HPM_P1;HPM_P2
2024/03/05 00:02:04;;;;;;;0.17;0.10;;;;;;;30.47;nan;98791.47;7395816;19;20019;-50
2024/03/05 00:04:32;;;;;;;0.95;0.75;;;;;;;30.55;nan;98785.41;7396539;19;20017;-50
2024/03/05 00:06:58;;;;;;;0.63;0.60;;;;;;;30.51;nan;98791.69;7395957;19;20017;-50
2024/03/05 00:09:25;;;;;;;1.88;0.32;;;;;;;30.79;nan;98792.38;7395699;19;20017;-50
2024/03/05 00:11:51;;;;;;;0.20;0.20;;;;;;;30.66;nan;98790.28;7396120;19;20026;-50
2024/03/05 00:14:18;;;;;;;0.17;0.17;;;;;;;30.37;nan;98799.59;7396198;19;20066;-50
2024/03/05 00:16:44;;;;;;;7.65;0.40;;;;;;;30.46;nan;98800.75;7393927;19;20030;-50
2024/03/05 00:19:11;;;;;;;0.63;0.57;;;;;;;30.60;nan;98807.22;7396109;19;20006;-50
2024/03/05 00:21:37;;;;;;;4.47;0.20;;;;;;;30.60;nan;98810.09;7395206;19;20010;-50
2024/03/05 00:24:03;;;;;;;1.38;0.50;;;;;;;30.71;nan;98803.47;7396971;19;20023;-50
2024/03/05 00:26:29;;;;;;;0.52;0.20;;;;;;;30.63;nan;98811.69;7395867;19;20010;-50
2024/03/05 00:28:58;;;;;;;0.45;0.35;;;;;;;30.55;nan;98819.91;7395427;19;20090;-50
2024/03/05 00:31:25;;;;;;;0.35;0.35;;;;;;;30.29;nan;98819.25;7395221;19;20272;-50
2024/03/05 00:33:51;;;;;;;0.32;0.17;;;;;;;30.29;nan;98827.88;7395843;19;20627;-50
2024/03/05 00:36:17;;;;;;;0.20;0.10;;;;;;;30.27;nan;98829.88;7397858;19;20114;-50
2024/03/05 00:38:43;;;;;;;1.40;0.60;;;;;;;30.19;nan;98829.47;7395175;19;20010;-50
2024/03/05 00:41:09;;;;;;;9.95;0.35;;;;;;;29.90;nan;98827.94;7395098;19;20011;-50
2024/03/05 00:43:35;;;;;;;0.30;0.30;;;;;;;29.98;nan;98828.38;7398336;19;20010;-50
2024/03/05 00:46:01;;;;;;;0.30;0.30;;;;;;;29.97;nan;98838.38;7394400;19;20014;-50
2024/03/05 00:48:30;;;;;;;3.03;0.50;;;;;;;29.93;nan;98840.28;7394345;19;20337;-50
2024/03/05 00:50:56;;;;;;;0.25;0.17;;;;;;;29.97;nan;98837.63;7394082;19;20399;-50
2024/03/05 00:53:22;;;;;;;0.25;0.20;;;;;;;30.03;nan;98846.56;7393733;19;20029;-49
2024/03/05 00:55:48;;;;;;;0.68;0.50;;;;;;;30.07;nan;98843.16;7393338;19;20046;-50
2024/03/05 00:58:15;;;;;;;0.10;0.10;;;;;;;30.22;nan;98854.78;7393465;19;20011;-50
2024/03/05 01:00:42;;;;;;;0.17;0.13;;;;;;;30.40;nan;98849.28;7394161;19;20050;-50
2024/03/05 01:03:10;;;;;;;0.55;0.43;;;;;;;29.87;nan;98849.31;7393979;19;20066;-50
2024/03/05 01:05:36;;;;;;;5.80;0.80;;;;;;;30.19;nan;98858.91;7395844;19;20014;-50
2024/03/05 01:08:03;;;;;;;0.95;0.70;;;;;;;30.37;nan;98856.31;7396846;19;20018;-50
2024/03/05 01:10:29;;;;;;;0.77;0.40;;;;;;;30.35;nan;98856.19;7393669;19;20074;-50
2024/03/05 01:12:56;;;;;;;2.63;0.85;;;;;;;30.39;nan;98865.78;7396270;19;20039;-50
2024/03/05 01:15:23;;;;;;;0.63;0.52;;;;;;;30.47;nan;98859.72;7392444;19;20007;-50
2024/03/05 01:17:49;;;;;;;0.20;0.13;;;;;;;30.56;nan;98856.63;7393855;19;20028;-50
2024/03/05 01:20:15;;;;;;;0.43;0.22;;;;;;;30.37;nan;98854.19;7397711;19;20466;-50
2024/03/05 01:22:42;;;;;;;0.73;0.65;;;;;;;30.18;nan;98865.31;7393860;19;20110;-50
2024/03/05 01:25:09;;;;;;;0.30;0.30;;;;;;;30.10;nan;98873.50;7392526;19;20022;-50
2024/03/05 01:27:35;;;;;;;1.35;0.63;;;;;;;30.33;nan;98879.06;7392621;19;20018;-50
2024/03/05 01:30:01;;;;;;;0.43;0.43;;;;;;;30.47;nan;98876.97;7393059;19;20026;-50
2024/03/05 01:32:28;;;;;;;2.20;0.57;;;;;;;30.63;nan;98880.66;7393036;19;20011;-50
2024/03/05 01:34:56;;;;;;;3.35;0.28;;;;;;;30.80;nan;98874.38;7393358;19;20427;-55
2024/03/05 01:37:23;;;;;;;1.40;0.60;;;;;;;30.89;nan;98882.06;7392904;19;20046;-55
2024/03/05 01:39:49;;;;;;;0.65;0.47;;;;;;;30.87;nan;98876.19;7397140;19;20015;-55
2024/03/05 01:42:15;;;;;;;0.30;0.30;;;;;;;30.84;nan;98880.31;7394911;19;20010;-55
2024/03/05 01:44:42;;;;;;;0.63;0.50;;;;;;;30.89;nan;98887.81;7392911;19;20025;-55
2024/03/05 01:47:08;;;;;;;0.95;0.90;;;;;;;30.98;nan;98877.47;7393166;19;20014;-55
2024/03/05 01:49:34;;;;;;;1.95;0.55;;;;;;;31.25;nan;98883.88;7392794;19;20014;-55
2024/03/05 01:52:00;;;;;;;0.45;0.45;;;;;;;31.11;nan;98882.44;7396218;19;20036;-55
2024/03/05 01:54:29;;;;;;;1.60;0.30;;;;;;;31.11;nan;98883.19;7392875;19;20011;-55
2024/03/05 01:57:02;;;;;;;1.55;0.30;;;;;;;31.00;nan;98898.44;7390561;19;20006;-55
2024/03/05 01:59:29;;;;;;;0.65;0.65;;;;;;;30.99;nan;98896.94;7392896;19;20021;-55
2024/03/05 02:01:56;;;;;;;1.55;0.82;;;;;;;30.98;nan;98897.59;7391926;19;20018;-55
2024/03/05 02:04:23;;;;;;;2.30;0.47;;;;;;;30.82;nan;98900.34;7392474;19;20466;-55
2024/03/05 02:06:53;;;;;;;0.65;0.60;;;;;;;30.77;nan;98903.66;7392343;19;20727;-55
2024/03/05 02:09:21;;;;;;;1.30;1.00;;;;;;;30.76;nan;98908.66;7392399;19;20011;-55
2024/03/05 02:11:47;;;;;;;0.45;0.30;;;;;;;30.86;nan;98912.13;7394116;19;20015;-55
2024/03/05 02:14:13;;;;;;;0.55;0.32;;;;;;;30.83;nan;98906.84;7395055;19;20031;-55
2024/03/05 02:16:40;;;;;;;3.95;0.90;;;;;;;30.65;nan;98921.03;7390691;19;20077;-55
2024/03/05 02:19:07;;;;;;;0.47;0.43;;;;;;;30.59;nan;98917.81;7392923;19;20014;-55
2024/03/05 02:21:34;;;;;;;0.57;0.57;;;;;;;30.63;nan;98923.78;7392066;19;20025;-55
2024/03/05 02:24:00;;;;;;;1.35;0.55;;;;;;;30.61;nan;98917.94;7394298;19;20002;-55
2024/03/05 02:26:30;;;;;;;0.73;0.60;;;;;;;30.56;nan;98919.09;7394793;19;20035;-55
2024/03/05 02:28:57;;;;;;;0.52;0.20;;;;;;;30.71;nan;98924.19;7392310;19;20381;-55
2024/03/05 02:31:24;;;;;;;5.95;0.82;;;;;;;30.91;nan;98913.78;7391266;19;20019;-55
2024/03/05 02:33:53;;;;;;;0.63;0.30;;;;;;;31.00;nan;98915.69;7391518;19;20023;-55
2024/03/05 02:36:21;;;;;;;0.40;0.20;;;;;;;30.95;nan;98914.00;7390410;19;20011;-55
2024/03/05 02:38:50;;;;;;;1.20;0.75;;;;;;;30.77;nan;98921.66;7391482;19;20474;-55
2024/03/05 02:41:20;;;;;;;;;;;;;;;30.78;nan;98913.75;7388895;19;20014;-55
2024/03/05 02:43:46;;;;;;;2.80;0.85;;;;;;;30.65;nan;98909.53;7393897;19;20258;-55
2024/03/05 02:46:13;;;;;;;0.88;0.35;;;;;;;30.54;nan;98916.13;7389196;19;20033;-55
2024/03/05 02:48:39;;;;;;;0.45;0.32;;;;;;;30.38;nan;98912.41;7391565;19;19998;-55
2024/03/05 02:51:05;;;;;;;0.82;0.60;;;;;;;30.59;nan;98924.34;7396318;19;20010;-55
2024/03/05 02:53:31;;;;;;;3.75;0.75;;;;;;;30.26;nan;98931.81;7399837;19;20015;-55
2024/03/05 02:55:57;;;;;;;0.52;0.40;;;;;;;30.14;nan;98931.16;7396486;19;20021;-55
2024/03/05 02:58:25;;;;;;;1.13;0.93;;;;;;;30.03;nan;98931.97;7397824;19;20018;-55
2024/03/05 03:00:51;;;;;;;1.58;0.50;;;;;;;29.75;nan;98926.16;7398743;19;20006;-55
2024/03/05 03:03:17;;;;;;;2.60;0.43;;;;;;;29.63;nan;98931.16;7398071;19;20011;-55
2024/03/05 03:05:45;;;;;;;0.47;0.45;;;;;;;29.56;nan;98931.47;7397824;19;20029;-55
2024/03/05 03:08:11;;;;;;;2.40;0.40;;;;;;;29.51;nan;98929.75;7400540;19;20018;-55
2024/03/05 03:10:38;;;;;;;1.08;0.40;;;;;;;29.49;nan;98941.84;7398456;19;20407;-55
2024/03/05 03:13:04;;;;;;;0.68;0.68;;;;;;;29.18;nan;98941.44;7399755;19;20013;-55
2024/03/05 03:15:30;;;;;;;0.25;0.20;;;;;;;29.14;nan;98944.06;7400713;19;20037;-55
2024/03/05 03:17:57;;;;;;;0.55;0.55;;;;;;;29.24;nan;98936.81;7400303;19;20024;-55
2024/03/05 03:20:23;;;;;;;0.52;0.52;;;;;;;29.50;nan;98946.19;7402088;19;20024;-55
2024/03/05 03:22:49;;;;;;;1.10;0.93;;;;;;;29.47;nan;98936.00;7398095;19;20014;-50
2024/03/05 03:25:16;;;;;;;0.50;0.50;;;;;;;29.50;nan;98948.34;7398681;19;20070;-50
2024/03/05 03:27:42;;;;;;;0.40;0.35;;;;;;;29.47;nan;98950.34;7397416;19;20018;-50
2024/03/05 03:30:14;;;;;;;0.90;0.90;;;;;;;29.45;nan;98955.22;7396979;19;20028;-50
2024/03/05 03:32:40;;;;;;;4.50;0.40;;;;;;;29.35;nan;98949.63;7396281;19;20013;-50
2024/03/05 03:35:06;;;;;;;0.98;0.68;;;;;;;29.85;nan;98952.56;7394465;19;20026;-50
2024/03/05 03:37:32;;;;;;;0.57;0.57;;;;;;;30.14;nan;98948.41;7398410;19;20073;-50
2024/03/05 03:39:59;;;;;;;1.52;1.42;;;;;;;30.22;nan;98960.31;7397755;19;20049;-50
2024/03/05 03:42:27;;;;;;;0.38;0.38;;;;;;;30.06;nan;98954.41;7399358;19;20013;-50
2024/03/05 03:44:53;;;;;;;2.20;1.40;;;;;;;29.51;nan;98970.66;7397403;19;20332;-50
2024/03/05 03:47:19;;;;;;;1.45;0.22;;;;;;;29.45;nan;98961.72;7396636;19;20078;-50
2024/03/05 03:49:48;;;;;;;2.15;1.23;;;;;;;29.17;nan;98968.66;7398468;19;20035;-50
2024/03/05 03:52:15;;;;;;;2.40;0.55;;;;;;;28.91;nan;98979.25;7398868;19;20022;-50
2024/03/05 03:54:41;;;;;;;2.08;0.85;;;;;;;28.90;nan;98974.16;7401834;19;20010;-50
2024/03/05 03:57:09;;;;;;;1.27;1.13;;;;;;;28.87;nan;98984.00;7393922;19;20409;-50
2024/03/05 03:59:35;;;;;;;2.05;0.98;;;;;;;28.75;nan;98983.25;7398501;19;20034;-50
2024/03/05 04:02:01;;;;;;;0.43;0.43;;;;;;;28.66;nan;98987.00;7399863;19;20021;-50
2024/03/05 04:04:27;;;;;;;0.47;0.47;;;;;;;28.64;nan;98989.75;7395866;19;20365;-50
2024/03/05 04:06:54;;;;;;;0.75;0.68;;;;;;;28.60;nan;98992.34;7395969;19;20027;-50
2024/03/05 04:09:20;;;;;;;0.43;0.43;;;;;;;28.55;nan;98997.06;7395776;19;20019;-50
2024/03/05 04:11:46;;;;;;;0.50;0.40;;;;;;;28.61;nan;98997.44;7394613;19;20034;-50
2024/03/05 04:14:12;;;;;;;0.10;0.10;;;;;;;28.62;nan;99003.94;7396726;19;20086;-50
2024/03/05 04:16:42;;;;;;;0.57;0.47;;;;;;;28.81;nan;99013.03;7397936;19;20010;-50
2024/03/05 04:19:08;;;;;;;0.52;0.22;;;;;;;28.75;nan;99011.91;7397675;19;20021;-50
2024/03/05 04:21:42;;;;;;;1.17;0.50;;;;;;;28.66;nan;99015.66;7396835;19;20062;-50
2024/03/05 04:24:11;;;;;;;0.63;0.63;;;;;;;28.60;nan;99021.75;7398653;19;20006;-50
2024/03/05 04:26:38;;;;;;;7.22;1.00;;;;;;;28.51;nan;99017.63;7395142;19;20458;-50
2024/03/05 04:29:06;;;;;;;0.68;0.60;;;;;;;28.58;nan;99020.88;7394818;19;20010;-50
2024/03/05 04:31:34;;;;;;;1.75;0.73;;;;;;;28.53;nan;99032.06;7395286;19;20011;-50
2024/03/05 04:34:02;;;;;;;0.63;0.63;;;;;;;28.90;nan;99028.63;7397284;19;20014;-50
2024/03/05 04:36:29;;;;;;;0.65;0.65;;;;;;;29.08;nan;99039.09;7393964;19;20086;-50
2024/03/05 04:38:55;;;;;;;0.30;0.30;;;;;;;29.01;nan;99039.34;7398796;19;20021;-50
2024/03/05 04:41:22;;;;;;;1.27;0.55;;;;;;;29.00;nan;99052.19;7394647;19;20082;-50
2024/03/05 04:43:48;;;;;;;2.28;0.90;;;;;;;28.99;nan;99045.69;7398793;19;20010;-50
2024/03/05 04:46:14;;;;;;;1.92;0.75;;;;;;;28.97;nan;99056.28;7395830;19;20015;-50
2024/03/05 04:48:40;;;;;;;3.58;1.17;;;;;;;28.92;nan;99048.81;7395381;19;20014;-50
2024/03/05 04:51:08;;;;;;;1.85;0.55;;;;;;;28.92;nan;99057.41;7394384;19;20018;-50
2024/03/05 04:53:38;;;;;;;3.00;0.63;;;;;;;28.97;nan;99067.75;7395907;19;20585;-50
2024/03/05 04:56:07;;;;;;;0.10;0.10;;;;;;;28.99;nan;99070.75;7393713;19;20033;-50
2024/03/05 04:58:35;;;;;;;1.60;0.68;;;;;;;28.86;nan;99062.78;7394847;19;20010;-50
2024/03/05 05:01:01;;;;;;;1.02;0.82;;;;;;;28.73;nan;99069.13;7394654;19;20052;-50
2024/03/05 05:03:27;;;;;;;2.65;1.63;;;;;;;29.25;nan;99063.78;7395434;19;20017;-50
2024/03/05 05:05:54;;;;;;;0.32;0.32;;;;;;;28.96;nan;99074.84;7394417;19;20014;-50
2024/03/05 05:08:20;;;;;;;3.20;1.08;;;;;;;28.86;nan;99077.09;7397165;19;20362;-50
2024/03/05 05:10:47;;;;;;;2.08;0.57;;;;;;;28.98;nan;99080.72;7393075;19;20019;-50
2024/03/05 05:13:14;;;;;;;0.73;0.73;;;;;;;28.85;nan;99084.19;7397558;19;20343;-50
2024/03/05 05:15:40;;;;;;;6.82;0.57;;;;;;;28.82;nan;99079.72;7393323;19;20022;-50
2024/03/05 05:18:06;;;;;;;13.68;0.68;;;;;;;28.98;nan;99080.72;7393394;19;20013;-50
2024/03/05 05:20:32;;;;;;;3.72;1.95;;;;;;;28.95;nan;99088.47;7393822;19;20028;-50
2024/03/05 05:22:58;;;;;;;2.40;0.75;;;;;;;29.28;nan;99096.22;7393640;19;20007;-50
2024/03/05 05:25:24;;;;;;;0.30;0.30;;;;;;;29.06;nan;99095.56;7397078;19;20010;-50
2024/03/05 05:27:51;;;;;;;2.55;0.57;;;;;;;28.99;nan;99099.44;7393250;19;20070;-50
2024/03/05 05:30:18;;;;;;;1.88;1.13;;;;;;;29.19;nan;99106.44;7393893;19;20010;-50
2024/03/05 05:32:47;;;;;;;6.07;0.60;;;;;;;29.01;nan;99108.16;7393766;19;20017;-50
2024/03/05 05:35:14;;;;;;;3.40;1.45;;;;;;;28.88;nan;99117.38;7393132;19;20018;-50
2024/03/05 05:37:40;;;;;;;0.73;0.55;;;;;;;28.84;nan;99112.13;7393124;19;20089;-50
2024/03/05 05:40:10;;;;;;;2.45;0.47;;;;;;;28.81;nan;99106.88;7393450;19;20579;-50
2024/03/05 05:42:38;;;;;;;2.17;1.05;;;;;;;28.77;nan;99120.97;7396104;19;20026;-50
2024/03/05 05:45:08;;;;;;;0.32;0.32;;;;;;;28.76;nan;99122.34;7395771;19;20100;-50
2024/03/05 05:47:38;;;;;;;1.90;1.20;;;;;;;28.77;nan;99118.84;7397224;19;20010;-50
2024/03/05 05:50:17;;;;;;;0.95;0.95;;;;;;;28.51;nan;99132.22;7392956;19;20054;-50
2024/03/05 05:52:52;;;;;;;0.55;0.30;;;;;;;28.46;nan;99136.19;7392382;19;20035;-50
2024/03/05 05:55:24;;;;;;;0.38;0.38;;;;;;;28.53;nan;99135.22;7395505;19;20323;-50
2024/03/05 05:57:51;;;;;;;2.55;1.00;;;;;;;28.51;nan;99143.69;7396751;19;20331;-50
2024/03/05 06:00:22;;;;;;;0.88;0.82;;;;;;;28.46;nan;99144.78;7393622;19;20473;-50
2024/03/05 06:02:56;;;;;;;0.85;0.65;;;;;;;28.44;nan;99149.63;7392498;19;20022;-50
2024/03/05 06:05:28;;;;;;;0.68;0.25;;;;;;;28.42;nan;99147.38;7392873;19;20007;-50
2024/03/05 06:07:54;;;;;;;0.50;0.47;;;;;;;28.35;nan;99150.47;7395078;19;20058;-50
2024/03/05 06:10:23;;;;;;;10.73;2.05;;;;;;;28.27;nan;99155.66;7392440;19;20007;-50
2024/03/05 06:12:50;;;;;;;1.10;0.75;;;;;;;28.62;nan;99164.41;7394745;19;20021;-50
2024/03/05 06:15:20;;;;;;;2.63;0.45;;;;;;;28.21;nan;99167.47;7394386;19;20582;-50
2024/03/05 06:17:46;;;;;;;5.43;0.82;;;;;;;27.97;nan;99165.84;7392768;19;20022;-50
2024/03/05 06:20:14;;;;;;;10.95;1.67;;;;;;;28.50;nan;99164.38;7391425;19;20022;-50
2024/03/05 06:22:42;;;;;;;1.02;0.65;;;;;;;28.14;nan;99165.56;7392931;19;20018;-50
2024/03/05 06:25:09;;;;;;;0.50;0.50;;;;;;;28.07;nan;99175.13;7401734;19;20015;-50
2024/03/05 06:27:36;;;;;;;0.60;0.60;;;;;;;28.13;nan;99166.91;7399934;19;20007;-50
2024/03/05 06:30:07;;;;;;;0.17;0.17;;;;;;;27.96;nan;99181.50;7397594;19;20056;-50
2024/03/05 06:32:43;;;;;;;0.47;0.38;;;;;;;27.98;nan;99187.38;7398459;19;20014;-50
2024/03/05 06:35:12;;;;;;;2.00;0.73;;;;;;;27.97;nan;99188.75;7397743;19;20015;-50
2024/03/05 06:37:39;;;;;;;2.50;0.38;;;;;;;27.96;nan;99192.94;7402125;19;20458;-50
2024/03/05 06:40:09;;;;;;;1.38;0.70;;;;;;;28.02;nan;99201.22;7401716;19;20070;-50
2024/03/05 06:42:39;;;;;;;2.05;0.50;;;;;;;28.06;nan;99202.25;7400206;19;20061;-50
2024/03/05 06:45:09;;;;;;;0.73;0.73;;;;;;;28.22;nan;99199.75;7398798;19;20033;-50
2024/03/05 06:47:39;;;;;;;4.57;1.13;;;;;;;28.41;nan;99214.63;7401539;19;20025;-50
2024/03/05 06:50:07;;;;;;;5.25;0.60;;;;;;;28.34;nan;99217.72;7398888;19;20018;-50
2024/03/05 06:58:04;;;;;;;2.00;1.08;;;;;;;28.56;nan;99229.91;7398395;19;20033;-50
2024/03/05 07:00:30;;;;;;;3.22;1.38;;;;;;;28.44;nan;99224.88;7397653;19;20014;-50
2024/03/05 07:02:57;;;;;;;1.33;1.05;;;;;;;28.52;nan;99236.84;7397293;19;20033;-50
2024/03/05 07:05:23;;;;;;;2.08;0.63;;;;;;;28.59;nan;99234.44;7397687;19;20011;-50
2024/03/05 07:07:49;;;;;;;2.35;0.75;;;;;;;28.58;nan;99238.66;7401090;19;20011;-50
2024/03/05 07:10:21;;;;;;;10.65;0.93;;;;;;;28.20;nan;99233.94;7398183;19;20491;-50
2024/03/05 07:12:49;;;;;;;2.25;1.45;;;;;;;28.12;nan;99245.63;7401611;19;20018;-50
2024/03/05 07:15:15;;;;;;;5.68;1.13;;;;;;;28.35;nan;99248.59;7397029;19;20439;-50
2024/03/05 07:17:44;;;;;;;2.20;1.83;;;;;;;28.54;nan;99248.44;7398195;19;20098;-50
2024/03/05 07:20:24;;;;;;;4.78;1.65;;;;;;;27.72;nan;99260.00;7397335;19;20015;-50
2024/03/05 07:22:52;;;;;;;2.03;0.77;;;;;;;27.69;nan;99261.19;7398572;19;20017;-50
2024/03/05 07:25:19;;;;;;;2.70;1.55;;;;;;;27.66;nan;99266.03;7400158;19;20011;-51
2024/03/05 07:27:49;;;;;;;3.17;0.50;;;;;;;27.83;nan;99267.91;7401254;19;20025;-50
2024/03/05 07:30:16;;;;;;;7.22;1.90;;;;;;;27.89;nan;99274.06;7396781;19;20059;-50
2024/03/05 07:32:45;;;;;;;2.25;0.93;;;;;;;27.93;nan;99280.06;7397724;19;20018;-50
2024/03/05 07:35:15;;;;;;;2.00;1.25;;;;;;;28.72;nan;99276.88;7395795;19;20018;-50
2024/03/05 07:37:44;;;;;;;8.23;1.00;;;;;;;28.20;nan;99280.53;7401079;19;20015;-51
2024/03/05 07:40:18;;;;;;;11.40;1.58;;;;;;;28.01;nan;99292.09;7396522;19;20336;-50
2024/03/05 07:42:55;;;;;;;2.47;1.20;;;;;;;27.76;nan;99289.63;7399439;19;20492;-50
2024/03/05 07:45:22;;;;;;;11.98;1.60;;;;;;;27.69;nan;99289.81;7398736;19;20038;-50
2024/03/05 07:47:50;;;;;;;1.15;0.90;;;;;;;27.62;nan;99297.22;7396580;19;20502;-50
2024/03/05 07:50:16;;;;;;;2.80;1.55;;;;;;;28.42;nan;99299.22;7396281;19;20014;-50
2024/03/05 07:52:45;;;;;;;6.28;1.52;;;;;;;28.62;nan;99301.97;7396059;19;20018;-51
2024/03/05 07:55:13;;;;;;;3.35;2.75;;;;;;;30.03;nan;99299.59;7394964;19;20015;-50
2024/03/05 07:57:40;;;;;;;2.70;2.30;;;;;;;30.27;nan;99301.06;7396022;19;20032;-50
2024/03/05 08:00:11;;;;;;;7.22;1.75;;;;;;;29.98;nan;99302.22;7396410;19;20373;-50
2024/03/05 08:02:38;;;;;;;;;;;;;;;28.69;nan;99318.97;7397189;19;20019;-50
2024/03/05 08:05:04;;;;;;;6.38;1.55;;;;;;;28.85;nan;99317.16;7395999;19;19922;-50
2024/03/05 08:07:35;;;;;;;0.75;0.75;;;;;;;28.83;nan;99327.72;7398897;19;20010;-50
2024/03/05 08:10:05;;;;;;;0.45;0.45;;;;;;;29.96;nan;99327.94;7398187;19;20027;-50
2024/03/05 08:12:33;;;;;;;4.63;1.50;;;;;;;29.21;nan;99339.66;7400232;19;20011;-50
2024/03/05 08:14:59;;;;;;;1.08;0.77;;;;;;;28.64;nan;99347.94;7396321;19;20026;-50
2024/03/05 08:17:25;;;;;;;1.27;0.95;;;;;;;28.57;nan;99358.25;7398946;19;20014;-50
2024/03/05 08:19:51;;;;;;;6.28;1.35;;;;;;;28.66;nan;99360.31;7396348;19;20565;-50
2024/03/05 08:22:20;;;;;;;3.08;1.23;;;;;;;28.73;nan;99370.06;7393551;19;20015;-50
2024/03/05 08:24:46;;;;;;;1.90;0.70;;;;;;;28.93;nan;99366.44;7398623;19;20018;-50
2024/03/05 08:27:13;;;;;;;1.52;0.98;;;;;;;28.97;nan;99360.22;7394166;19;20025;-50
2024/03/05 08:29:39;;;;;;;5.07;1.52;;;;;;;29.02;nan;99362.72;7398836;19;20018;-50
2024/03/05 08:32:09;;;;;;;3.50;0.98;;;;;;;29.23;nan;99370.59;7395453;19;20036;-50
2024/03/05 08:34:37;;;;;;;1.30;0.77;;;;;;;29.90;nan;99367.03;7395084;19;20769;-50
2024/03/05 08:37:03;;;;;;;1.77;1.17;;;;;;;30.16;nan;99374.41;7393205;19;20006;-50
2024/03/05 08:39:29;;;;;;;2.88;0.93;;;;;;;30.66;nan;99377.50;7395236;19;20037;-50
2024/03/05 08:41:55;;;;;;;3.00;0.32;;;;;;;30.67;nan;99389.75;7397929;19;20016;-50
2024/03/05 08:44:21;;;;;;;2.25;0.95;;;;;;;29.77;nan;99387.72;7394648;19;20123;-50
2024/03/05 08:46:47;;;;;;;1.48;1.17;;;;;;;29.74;nan;99389.72;7392479;19;20530;-50
2024/03/05 08:49:14;;;;;;;4.88;0.43;;;;;;;29.14;nan;99394.34;7397193;19;20457;-50
2024/03/05 08:51:40;;;;;;;8.43;0.60;;;;;;;28.72;nan;99400.09;7397732;19;20014;-50
2024/03/05 08:54:09;;;;;;;0.28;0.28;;;;;;;28.77;nan;99401.88;7394895;19;20038;-50
2024/03/05 08:56:45;;;;;;;4.30;1.40;;;;;;;28.86;nan;99401.81;7393806;19;20014;-50
2024/03/05 08:59:11;;;;;;;3.80;1.15;;;;;;;28.64;nan;99408.88;7394768;19;20014;-50
2024/03/05 09:01:38;;;;;;;0.35;0.32;;;;;;;28.93;nan;99417.31;7394983;19;20059;-50
2024/03/05 09:04:06;;;;;;;8.68;1.70;;;;;;;29.60;nan;99426.09;7394510;19;20011;-50
2024/03/05 09:06:33;;;;;;;2.55;1.48;;;;;;;29.47;nan;99438.16;7394518;19;20021;-50
2024/03/05 09:08:59;;;;;;;0.50;0.40;;;;;;;29.19;nan;99439.16;7399079;19;20014;-50
2024/03/05 09:11:25;;;;;;;4.43;1.10;;;;;;;29.29;nan;99442.69;7398286;19;20033;-50
2024/03/05 09:13:51;;;;;;;0.57;0.30;;;;;;;29.31;nan;99448.56;7398299;19;20006;-50
2024/03/05 09:16:17;;;;;;;2.38;0.68;;;;;;;29.42;nan;99447.88;7392645;19;20010;-50
2024/03/05 09:18:43;;;;;;;0.90;0.90;;;;;;;30.48;nan;99441.75;7393267;19;20003;-50
2024/03/05 09:21:11;;;;;;;0.70;0.43;;;;;;;30.59;nan;99446.75;7393860;19;20074;-50
2024/03/05 09:23:41;;;;;;;8.80;1.25;;;;;;;31.04;nan;99444.44;7393077;19;20017;-50
2024/03/05 09:26:07;;;;;;;9.07;0.65;;;;;;;30.27;nan;99439.75;7395760;19;20007;-50
2024/03/05 09:28:34;;;;;;;1.83;0.73;;;;;;;29.57;nan;99455.28;7393709;19;20347;-50
2024/03/05 09:31:00;;;;;;;0.57;0.52;;;;;;;29.61;nan;99456.31;7392719;19;20386;-50
2024/03/05 09:33:27;;;;;;;3.13;0.40;;;;;;;30.12;nan;99457.47;7394832;19;20462;-50
2024/03/05 09:35:53;;;;;;;1.58;0.73;;;;;;;31.19;nan;99464.03;7395982;19;20411;-50
2024/03/05 09:38:19;;;;;;;1.17;0.47;;;;;;;31.52;nan;99463.84;7393891;19;20010;-50
2024/03/05 09:40:46;;;;;;;0.50;0.47;;;;;;;31.47;nan;99465.72;7389284;19;20017;-50
2024/03/05 09:43:13;;;;;;;2.03;0.85;;;;;;;31.20;nan;99469.19;7392645;19;20019;-50
2024/03/05 09:45:43;;;;;;;0.63;0.35;;;;;;;31.13;nan;99473.09;7389379;19;20028;-50
2024/03/05 09:48:10;;;;;;;0.50;0.50;;;;;;;31.41;nan;99471.91;7389492;19;20013;-50
2024/03/05 09:50:37;;;;;;;0.75;0.65;;;;;;;31.14;nan;99483.22;7393658;19;20033;-50
2024/03/05 09:53:03;;;;;;;4.82;0.82;;;;;;;31.64;nan;99476.78;7394181;19;20038;-50
2024/03/05 09:55:29;;;;;;;2.13;1.25;;;;;;;32.06;nan;99481.38;7388074;19;20018;-50
2024/03/05 09:57:56;;;;;;;3.25;0.88;;;;;;;31.98;nan;99475.91;7394036;19;20014;-50
2024/03/05 10:00:22;;;;;;;0.93;0.70;;;;;;;32.01;nan;99480.38;7402498;19;20572;-50
2024/03/05 10:02:50;;;;;;;1.38;0.73;;;;;;;31.80;nan;99483.50;7407635;19;20088;-50
2024/03/05 10:05:21;;;;;;;0.43;0.38;;;;;;;31.77;nan;99489.78;7402764;19;20017;-50
2024/03/05 10:07:48;;;;;;;;;;;;;;;32.08;nan;99487.25;7406377;19;20011;-50
2024/03/05 10:10:18;;;;;;;6.68;0.70;;;;;;;32.16;nan;99490.59;7406317;19;19937;-51
2024/03/05 10:12:44;;;;;;;0.30;0.30;;;;;;;32.20;nan;99487.94;7412432;19;20021;-50
2024/03/05 10:15:21;;;;;;;10.02;0.82;;;;;;;32.13;nan;99486.09;7410866;19;20014;-50
2024/03/05 10:17:49;;;;;;;0.47;0.43;;;;;;;32.26;nan;99491.13;7408285;19;20006;-50
2024/03/05 10:20:36;;;;;;;5.43;0.75;;;;;;;33.17;nan;99501.81;7406553;19;20032;-50
2024/03/05 10:23:07;;;;;;;12.40;1.50;;;;;;;33.38;nan;99499.31;7405614;19;20011;-50
2024/03/05 10:25:34;;;;;;;0.68;0.45;;;;;;;33.18;nan;99509.09;7405716;19;20011;-50
2024/03/05 10:28:02;;;;;;;0.35;0.32;;;;;;;33.07;nan;99512.84;7406594;19;20011;-50
2024/03/05 10:30:36;;;;;;;1.08;0.40;;;;;;;34.01;nan;99514.78;7409163;19;20014;-51
2024/03/05 10:33:04;;;;;;;1.30;0.52;;;;;;;33.42;nan;99518.97;7409694;19;20343;-51
2024/03/05 10:35:33;;;;;;;0.95;0.88;;;;;;;33.46;nan;99519.19;7404985;19;20026;-50
2024/03/05 10:38:02;;;;;;;4.60;1.17;;;;;;;33.59;nan;99524.22;7405934;19;20027;-50
2024/03/05 10:40:34;;;;;;;0.88;0.20;;;;;;;33.71;nan;99521.19;7405705;19;20324;-51
2024/03/05 10:43:05;;;;;;;1.00;0.50;;;;;;;33.61;nan;99522.16;7409305;19;20018;-50
2024/03/05 10:45:34;;;;;;;1.20;0.25;;;;;;;33.57;nan;99521.22;7405999;19;20093;-51
2024/03/05 10:48:01;;;;;;;4.85;0.82;;;;;;;34.00;nan;99521.19;7403941;19;20028;-51
2024/03/05 10:50:28;;;;;;;0.45;0.45;;;;;;;33.70;nan;99529.09;7406229;19;20358;-51
2024/03/05 10:52:55;;;;;;;1.55;0.43;;;;;;;33.57;nan;99533.53;7408568;19;20042;-51
2024/03/05 10:55:23;;;;;;;2.08;0.63;;;;;;;33.07;nan;99533.03;7404572;19;20015;-51
2024/03/05 11:00:41;;;;;;;5.57;0.98;;;;;;;33.38;nan;99538.97;7405171;19;20007;-51
2024/03/05 11:03:10;;;;;;;2.42;0.65;;;;;;;33.36;nan;99542.53;7403950;19;20347;-51
2024/03/05 11:05:58;;;;;;;1.38;0.60;;;;;;;33.48;nan;99539.53;7400888;19;20006;-55
2024/03/05 11:08:25;;;;;;;0.63;0.63;;;;;;;33.54;nan;99536.97;7404505;19;20014;-55
2024/03/05 11:11:01;;;;;;;6.03;1.15;;;;;;;33.53;nan;99549.91;7392724;19;20011;-55
2024/03/05 11:13:30;;;;;;;11.98;0.95;;;;;;;33.63;nan;99556.19;7395678;19;20078;-55
2024/03/05 11:15:57;;;;;;;0.73;0.63;;;;;;;33.79;nan;99557.00;7396802;19;20098;-55
2024/03/05 11:18:34;;;;;;;1.75;1.00;;;;;;;33.79;nan;99548.34;7394452;19;20034;-56
2024/03/05 11:21:06;;;;;;;14.90;3.53;;;;;;;33.63;nan;99550.44;7393781;19;20320;-55
2024/03/05 11:23:36;;;;;;;2.33;0.30;;;;;;;33.43;nan;99546.47;7398371;19;20027;-55
2024/03/05 11:26:03;;;;;;;1.75;0.65;;;;;;;33.39;nan;99552.03;7393877;19;20385;-56
2024/03/05 11:28:31;;;;;;;0.47;0.22;;;;;;;33.52;nan;99554.19;7394674;19;20082;-55
2024/03/05 11:31:10;;;;;;;0.47;0.30;;;;;;;33.71;nan;99559.50;7394888;19;20015;-56
2024/03/05 11:33:40;;;;;;;0.10;0.10;;;;;;;33.91;nan;99557.63;7393302;19;20469;-56
2024/03/05 11:36:22;;;;;;;0.93;0.33;;;;;;;33.77;nan;99556.91;7394554;19;20495;-56
2024/03/05 11:39:15;;;;;;;1.45;0.77;;;;;;;33.81;nan;99551.31;7400810;19;20242;-56
2024/03/05 11:41:42;;;;;;;0.52;0.35;;;;;;;33.14;nan;99557.94;7399455;19;20019;-56
2024/03/05 11:44:11;;;;;;;1.00;0.03;;;;;;;32.54;nan;99553.28;7396924;19;20030;-56
2024/03/05 11:46:41;;;;;;;1.52;0.28;;;;;;;32.34;nan;99560.75;7397189;19;20010;-56
2024/03/05 11:49:09;;;;;;;3.13;0.57;;;;;;;32.26;nan;99560.31;7397684;19;20010;-55
2024/03/05 11:51:35;;;;;;;9.75;0.38;;;;;;;31.96;nan;99559.34;7398184;19;20074;-56
2024/03/05 11:54:01;;;;;;;2.85;0.55;;;;;;;31.57;nan;99554.84;7397304;19;20007;-55
2024/03/05 11:56:27;;;;;;;3.58;1.00;;;;;;;32.55;nan;99566.28;7397745;19;20018;-55
2024/03/05 11:58:57;;;;;;;0.20;0.20;;;;;;;32.81;nan;99564.84;7398370;19;20014;-55
2024/03/05 12:01:24;;;;;;;0.22;0.22;;;;;;;32.35;nan;99568.03;7395245;19;20042;-56
2024/03/05 12:04:07;;;;;;;6.90;0.45;;;;;;;32.53;nan;99574.81;7395314;19;20022;-56